• Join FlightAware (Why Join?)
  • Login
  • US Flag 
07:55PM EST


 

Airport Tracker/Info


-or-


 

Live Flight TrackerFlight Track Log ✈ N97826 ✈ 30-Oct-2013 ✈ KFNL

Flight Track Log - Related Links

Times and Time Zones

All times are in EDT time to prevent confusion due to time zone crossing. See the N97826 flight status page for this flight to view local times or setup timezone preferences in your user account.

Time Position Orientation Groundspeed Altitude Reporting Facility
EDT Latitude Longitude Course Direction KTS MPH feet Rate Location/Type
03:31PM 38.4869 -104.6656 North 154 177 10,500  Level Denver Center
03:32PM 38.5264 -104.6636 North 163 188 10,500  Level Denver Center
03:32PM 38.5364 -104.6614 10° North 156 180 10,500 420 Level Denver Center
03:33PM 38.5775 -104.6581 North 156 180 11,000 240 Climbing Denver Center
03:34PM 38.6256 -104.6494 North 157 181 11,000  Level Denver Center
03:35PM 38.6669 -104.6400 10° North 157 181 11,000  Level Denver Center
03:36PM 38.7133 -104.6394 North 155 178 11,000  Level Denver Center
03:37PM 38.7550 -104.6408 359° North 157 181 11,000  Level Denver Center
03:38PM 38.7969 -104.6383 North 157 181 11,000  Level Denver Center
03:39PM 38.8439 -104.6378 North 152 175 11,000  Level Denver Center
03:40PM 38.8892 -104.6358 North 156 180 11,000  Level Denver Center
03:40PM 38.8903 -104.6358 360° North 153 176 11,000 60 Level Denver Center
03:41PM 38.9317 -104.6369 359° North 152 175 11,100 -240 Climbing Denver Center
03:42PM 38.9769 -104.6431 354° North 163 188 10,600 -540 Descending Denver Center
03:43PM 39.0239 -104.6547 349° North 170 196 10,100 -300 Descending Denver Center
03:44PM 39.0669 -104.6658 349° North 158 182 10,000 -60 Descending Denver Center
03:45PM 39.1094 -104.6761 349° North 156 180 10,000  Level Denver Center
03:46PM 39.1575 -104.6883 349° North 154 177 10,000  Level Denver Center
03:47PM 39.1897 -104.7247 319° Northwest 143 165 10,100  Climbing Denver Center
03:48PM 39.2211 -104.7586 320° Northwest 148 170 10,000  Descending Denver Center
03:49PM 39.2500 -104.7947 316° Northwest 146 168 10,100  Climbing Denver Center
03:50PM 39.2808 -104.8333 316° Northwest 144 166 10,000 -60 Descending Denver Center
03:51PM 39.3128 -104.8653 322° Northwest 147 169 10,000  Level Denver Center
03:52PM 39.3461 -104.8903 330° Northwest 142 163 10,000 -60 Level Denver Center
03:53PM 39.3883 -104.9122 338° Northwest 150 173 9,900 -300 Descending Denver Center
03:54PM 39.4314 -104.9367 336° Northwest 166 191 9,400 -480 Descending Denver Center
03:55PM 39.4767 -104.9575 340° North 172 198 9,000 -240 Descending Denver Center
03:56PM 39.5192 -104.9772 340° North 154 177 9,000  Level Denver Center
03:57PM 39.5581 -104.9936 342° North 148 170 9,000  Level Denver Center
03:58PM 39.6003 -105.0103 343° North 147 169 9,000  Level Denver Center
03:59PM 39.6414 -105.0264 343° North 153 176 9,000  Level Denver Center
04:01PM 39.6819 -105.0439 342° North 154 177 9,000  Level Denver Center
04:02PM 39.7264 -105.0617 343° North 155 178 9,000  Level Denver Center
04:03PM 39.7672 -105.0775 343° North 153 176 9,000  Level Denver Center
04:04PM 39.8075 -105.0953 341° North 153 176 9,000  Level Denver Center
04:05PM 39.8494 -105.1131 342° North 149 171 9,000  Level Denver Center
04:06PM 39.8897 -105.1286 343° North 150 173 9,000  Level Denver Center
04:07PM 39.9297 -105.1331 355° North 147 169 9,000  Level Denver Center
04:08PM 39.9756 -105.1300 North 151 174 9,000  Level Denver Center
04:09PM 40.0192 -105.1256 North 155 178 9,000  Level Denver Center
04:10PM 40.0617 -105.1300 355° North 155 178 9,000  Level Denver Center
04:11PM 40.1064 -105.1414 349° North 152 175 9,000 120 Level Denver Center
04:12PM 40.1486 -105.1450 356° North 152 175 9,300 420 Climbing Denver Center
04:13PM 40.1894 -105.1544 350° North 142 163 9,900 420 Climbing Denver Center
04:14PM 40.2192 -105.1761 331° Northwest 126 145 10,200 360 Climbing Denver Center
04:15PM 40.2394 -105.2128 306° West 123 142 10,700 540 Climbing Denver Center
04:16PM 40.2611 -105.2525 306° West 124 143 11,400 480 Climbing Denver Center
04:17PM 40.2983 -105.2581 354° North 132 152 11,700 120 Climbing Denver Center
04:18PM 40.3397 -105.2589 359° North 144 166 11,700  Level Denver Center
04:19PM 40.3756 -105.2744 342° North 130 150 11,800  Climbing Denver Center
04:20PM 40.4089 -105.2972 333° Northwest 133 153 11,700  Descending Denver Center
04:21PM 40.4236 -105.3406 294° West 119 137 11,800 60 Climbing Denver Center
04:22PM 40.4083 -105.3286 149° Southeast 141 162 11,900  Climbing Denver Center
04:23PM 40.4258 -105.3414 331° Northwest 112 129 11,800 -480 Descending Denver Center
04:24PM 40.4036 -105.3025 127° Southeast 151 174 11,000 -540 Descending Denver Center
04:25PM 40.4011 -105.2428 93° East 154 177 10,800 -240 Descending Denver Center